Time;durP1;ratioP1;P1;durP2;ratioP2;P2;SDS_P1;SDS_P2;PMS_P1;PMS_P2;Temp;Humidity;BMP_temperature;BMP_pressure;BME280_temperature;BME280_humidity;BME280_pressure;Samples;Min_cycle;Max_cycle;Signal;HPM_P1;HPM_P2
2022/12/21 00:00:18;;;;;;;3.50;3.20;;;17.70;59.40;18.90;100253.00;;;;5009809;28;20234;-42
2022/12/21 00:02:44;;;;;;;3.47;3.17;;;17.70;59.50;18.90;100261.00;;;;5009485;28;20592;-42
2022/12/21 00:05:10;;;;;;;3.67;3.30;;;17.70;59.50;18.90;100255.00;;;;5011866;28;20168;-42
2022/12/21 00:07:35;;;;;;;3.73;3.23;;;17.70;59.50;18.80;100255.00;;;;5011506;28;20187;-42
2022/12/21 00:10:01;;;;;;;3.27;2.97;;;17.70;59.50;18.80;100256.00;;;;5017610;28;20201;-41
2022/12/21 00:12:27;;;;;;;3.40;3.10;;;17.70;59.60;18.80;100247.00;;;;5020182;28;20176;-42
2022/12/21 00:14:53;;;;;;;3.57;3.20;;;17.70;59.50;18.80;100256.00;;;;5019930;28;20183;-40
2022/12/21 00:17:18;;;;;;;3.43;3.07;;;17.70;59.50;18.80;100261.00;;;;5013468;28;20199;-42
2022/12/21 00:19:44;;;;;;;3.47;3.13;;;17.70;59.60;18.80;100265.00;;;;5011582;28;20683;-41
2022/12/21 00:22:10;;;;;;;4.23;3.30;;;17.60;59.40;18.70;100257.00;;;;5011065;28;20175;-42
2022/12/21 00:24:36;;;;;;;3.50;3.20;;;17.60;59.50;18.70;100265.00;;;;5010808;28;20178;-41
2022/12/21 00:27:02;;;;;;;3.40;3.10;;;17.60;59.50;18.70;100262.00;;;;5010116;28;20215;-41
2022/12/21 00:29:28;;;;;;;3.13;2.83;;;17.60;59.50;18.70;100273.00;;;;5011064;28;20181;-42
2022/12/21 00:31:53;;;;;;;3.30;2.93;;;17.60;59.60;18.70;100264.00;;;;5010449;28;20191;-41
2022/12/21 00:34:21;;;;;;;3.57;3.20;;;17.60;59.70;18.70;100257.00;;;;5010040;28;20172;-41
2022/12/21 00:36:47;;;;;;;3.40;3.10;;;17.50;59.60;18.70;100252.00;;;;5010796;28;20179;-42
2022/12/21 00:39:13;;;;;;;3.40;3.10;;;17.60;60.40;18.70;100250.00;;;;5010399;28;20187;-42
2022/12/21 00:41:39;;;;;;;3.33;3.03;;;17.50;59.60;18.70;100243.00;;;;5009694;28;20341;-43
2022/12/21 00:44:05;;;;;;;4.33;3.20;;;17.50;59.60;18.70;100243.00;;;;5010477;28;20307;-41
2022/12/21 00:46:32;;;;;;;3.80;3.40;;;17.50;59.60;18.70;100244.00;;;;5010201;28;20209;-42
2022/12/21 00:48:58;;;;;;;4.10;3.00;;;17.50;59.60;18.70;100245.00;;;;5010268;28;20251;-41
2022/12/21 00:51:25;;;;;;;3.23;2.93;;;17.50;59.60;18.70;100244.00;;;;5010039;28;20188;-42
2022/12/21 00:53:52;;;;;;;3.40;3.07;;;17.50;60.40;18.60;100243.00;;;;5010092;28;20171;-40
2022/12/21 00:56:18;;;;;;;3.43;3.13;;;17.50;59.60;18.60;100244.00;;;;5009932;28;20172;-43
2022/12/21 00:58:44;;;;;;;3.40;3.10;;;17.40;59.50;18.60;100241.00;;;;5012324;28;20186;-42
2022/12/21 01:01:19;;;;;;;3.43;3.13;;;17.50;59.60;18.60;100244.00;;;;5018670;28;20223;-42
2022/12/21 01:03:44;;;;;;;3.57;3.27;;;17.40;59.50;18.60;100233.00;;;;5018080;28;20211;-41
2022/12/21 01:06:33;;;;;;;3.33;2.80;;;17.40;59.60;18.60;100236.00;;;;5010826;28;20289;-43
2022/12/21 01:08:59;;;;;;;3.23;2.90;;;17.40;59.60;18.60;100229.00;;;;5010280;28;20187;-41
2022/12/21 01:11:27;;;;;;;3.27;2.97;;;17.40;59.60;18.60;100233.00;;;;5009748;28;20191;-42
2022/12/21 01:13:53;;;;;;;4.50;3.10;;;17.40;59.70;18.60;100245.00;;;;5009103;28;20258;-42
2022/12/21 01:16:22;;;;;;;3.20;2.90;;;17.40;59.70;18.50;100255.00;;;;5009650;28;20630;-42
2022/12/21 01:18:47;;;;;;;3.47;2.90;;;17.40;59.70;18.50;100257.00;;;;5009696;28;20180;-42
2022/12/21 01:21:22;;;;;;;3.40;3.10;;;17.40;59.60;18.50;100254.00;;;;5009863;28;20192;-41
2022/12/21 01:23:48;;;;;;;5.10;3.07;;;17.40;59.60;18.50;100263.00;;;;5010097;28;20230;-41
2022/12/21 01:26:14;;;;;;;3.13;2.83;;;17.30;59.60;18.50;100261.00;;;;5009658;28;20206;-41
2022/12/21 01:28:39;;;;;;;3.03;2.80;;;17.30;59.60;18.50;100261.00;;;;5010383;28;20216;-42
2022/12/21 01:31:05;;;;;;;3.30;3.00;;;17.30;59.70;18.50;100264.00;;;;5010022;28;20737;-42
2022/12/21 01:33:31;;;;;;;3.00;2.70;;;17.30;59.70;18.50;100274.00;;;;5009044;28;20202;-40
2022/12/21 01:35:57;;;;;;;3.23;2.93;;;17.30;59.70;18.50;100265.00;;;;5009986;28;20179;-41
2022/12/21 01:38:22;;;;;;;3.20;2.90;;;17.30;59.80;18.50;100266.00;;;;5008618;28;20183;-41
2022/12/21 01:40:48;;;;;;;3.03;2.83;;;17.30;59.70;18.50;100272.00;;;;5009737;28;20563;-42
2022/12/21 01:43:52;;;;;;;3.20;2.90;;;17.20;59.70;18.50;100279.00;;;;5009096;28;20174;-42
2022/12/21 01:46:26;;;;;;;3.57;2.90;;;17.30;59.80;18.40;100281.00;;;;5009363;28;20600;-41
2022/12/21 01:48:59;;;;;;;3.33;2.90;;;17.20;59.70;18.40;100273.00;;;;5008937;28;20168;-42
2022/12/21 01:51:24;;;;;;;3.00;2.70;;;17.20;59.80;18.40;100281.00;;;;5007761;28;20260;-42
2022/12/21 01:53:54;;;;;;;3.67;3.30;;;17.20;59.80;18.40;100281.00;;;;5009832;28;20672;-42
2022/12/21 01:56:24;;;;;;;3.90;3.10;;;17.20;59.90;18.40;100279.00;;;;5007723;28;20225;-42
2022/12/21 01:58:50;;;;;;;3.00;2.80;;;17.10;59.90;18.30;100287.00;;;;5008238;28;20262;-41
2022/12/21 02:01:15;;;;;;;3.07;2.83;;;17.10;60.00;18.30;100286.00;;;;5007722;28;20338;-41
2022/12/21 02:03:49;;;;;;;3.00;2.80;;;17.00;61.00;18.30;100299.00;;;;5006824;28;20183;-41
2022/12/21 02:06:39;;;;;;;3.87;2.97;;;17.10;60.30;18.30;100285.00;;;;5001746;28;20678;-42
2022/12/21 02:09:05;;;;;;;3.23;3.03;;;17.00;60.20;18.20;100284.00;;;;5007459;28;20223;-41
2022/12/21 02:11:30;;;;;;;3.30;3.00;;;17.00;60.00;18.20;100282.00;;;;5007842;28;20195;-42
2022/12/21 02:13:56;;;;;;;3.80;3.30;;;16.90;60.70;18.20;100282.00;;;;5009276;28;20168;-42
2022/12/21 02:16:25;;;;;;;3.50;3.20;;;16.80;60.50;18.20;100275.00;;;;5009594;28;20179;-41
2022/12/21 02:19:03;;;;;;;3.30;3.00;;;16.80;60.70;18.20;100271.00;;;;5007813;28;20187;-42
2022/12/21 02:22:05;;;;;;;3.43;3.00;;;16.90;60.70;18.10;100269.00;;;;5008088;28;20225;-41
2022/12/21 02:25:00;;;;;;;3.30;3.00;;;16.90;60.70;18.10;100279.00;;;;5007439;28;20295;-41
2022/12/21 02:28:21;;;;;;;3.90;2.90;;;16.90;60.70;18.10;100282.00;;;;5027928;28;20204;-43
2022/12/21 02:31:09;;;;;;;3.50;3.20;;;16.90;60.70;18.10;100276.00;;;;5012941;28;20203;-41
2022/12/21 02:33:49;;;;;;;3.63;3.33;;;16.80;60.60;18.00;100276.00;;;;5011512;28;20171;-41
2022/12/21 02:36:29;;;;;;;3.40;3.10;;;16.70;60.80;18.00;100290.00;;;;5011579;28;20190;-42
2022/12/21 02:39:12;;;;;;;3.80;3.43;;;16.70;61.10;18.00;100281.00;;;;5012221;28;20155;-40
2022/12/21 02:42:00;;;;;;;3.70;3.40;;;16.70;61.30;18.00;100275.00;;;;5011074;28;20195;-43
2022/12/21 02:44:42;;;;;;;3.80;3.50;;;16.70;61.40;17.90;100282.00;;;;5012940;28;20165;-42
2022/12/21 02:47:29;;;;;;;3.80;3.50;;;16.60;61.50;17.90;100273.00;;;;5011075;28;20289;-40
2022/12/21 02:50:07;;;;;;;4.10;3.37;;;16.70;61.40;17.90;100280.00;;;;5011213;28;20259;-43
2022/12/21 02:52:38;;;;;;;3.20;2.90;;;16.70;61.40;17.90;100284.00;;;;5011126;28;20560;-41
2022/12/21 02:55:05;;;;;;;3.43;3.07;;;16.70;61.10;17.90;100288.00;;;;5011225;28;20154;-42
2022/12/21 02:57:32;;;;;;;3.20;2.90;;;16.70;60.90;17.90;100288.00;;;;5012607;28;20182;-42
2022/12/21 02:59:58;;;;;;;3.63;3.10;;;16.80;60.80;17.90;100291.00;;;;5012372;28;20172;-42
2022/12/21 03:02:48;;;;;;;3.77;3.30;;;16.80;60.70;17.90;100290.00;;;;5011646;28;20572;-43
2022/12/21 03:05:36;;;;;;;3.30;2.97;;;16.80;60.60;17.90;100280.00;;;;5012553;28;20169;-42
2022/12/21 03:08:38;;;;;;;3.37;3.07;;;16.80;60.60;17.90;100275.00;;;;5010732;28;20657;-41
2022/12/21 03:11:04;;;;;;;3.47;3.17;;;16.80;60.60;17.90;100279.00;;;;5010499;28;20190;-42
2022/12/21 03:13:57;;;;;;;3.60;3.00;;;16.80;60.60;17.90;100276.00;;;;4994093;28;20649;-42
2022/12/21 03:16:49;;;;;;;3.03;2.73;;;16.80;60.70;17.90;100273.00;;;;5012212;28;20163;-41
2022/12/21 03:19:32;;;;;;;3.03;2.83;;;16.80;60.70;17.90;100260.00;;;;5010758;28;20256;-42
2022/12/21 03:22:08;;;;;;;3.50;3.00;;;16.80;60.80;17.80;100260.00;;;;5011114;28;20194;-41
2022/12/21 03:25:01;;;;;;;3.30;3.10;;;16.80;60.70;17.80;100260.00;;;;5010497;28;20159;-41
2022/12/21 03:27:30;;;;;;;3.67;3.27;;;16.70;60.50;17.80;100262.00;;;;5010442;28;20748;-41
2022/12/21 03:30:06;;;;;;;3.57;3.23;;;16.70;60.70;17.80;100256.00;;;;5010570;28;20343;-42
2022/12/21 03:33:04;;;;;;;3.30;3.00;;;16.60;60.90;17.80;100234.00;;;;5010068;28;20673;-42
2022/12/21 03:35:39;;;;;;;3.63;3.07;;;16.70;60.80;17.80;100228.00;;;;5010772;28;20185;-41
2022/12/21 03:38:08;;;;;;;3.80;3.40;;;16.70;60.80;17.80;100248.00;;;;5012603;28;20172;-41
2022/12/21 03:40:34;;;;;;;3.40;3.10;;;16.70;60.80;17.80;100242.00;;;;5020011;28;20260;-42
2022/12/21 03:43:26;;;;;;;3.40;3.10;;;16.70;60.80;17.80;100242.00;;;;5011937;28;20175;-41
2022/12/21 03:45:55;;;;;;;3.33;3.03;;;16.70;60.80;17.80;100238.00;;;;5012706;28;20199;-42
2022/12/21 03:48:41;;;;;;;3.40;3.10;;;16.70;60.70;17.80;100232.00;;;;5011276;28;20159;-42
2022/12/21 03:51:26;;;;;;;3.40;3.10;;;16.70;60.80;17.80;100206.00;;;;5009895;28;20277;-42
2022/12/21 03:54:43;;;;;;;3.33;3.10;;;16.70;60.90;17.80;100241.00;;;;5010006;28;20167;-41
2022/12/21 03:57:09;;;;;;;3.57;3.27;;;16.70;60.90;17.80;100227.00;;;;5005530;28;20770;-41
2022/12/21 03:59:37;;;;;;;3.30;3.00;;;16.70;60.90;17.80;100226.00;;;;5009708;28;20260;-43
2022/12/21 04:02:18;;;;;;;3.10;2.80;;;16.60;60.90;17.70;100226.00;;;;5008987;28;20197;-44
2022/12/21 04:05:13;;;;;;;3.40;3.10;;;16.60;60.80;17.70;100222.00;;;;5009719;28;20266;-42
2022/12/21 04:07:39;;;;;;;3.50;3.20;;;16.70;61.10;17.70;100220.00;;;;5009888;28;20235;-41
2022/12/21 04:10:17;;;;;;;3.47;3.10;;;16.70;60.90;17.70;100212.00;;;;5009690;28;20226;-42
2022/12/21 04:12:43;;;;;;;3.50;3.20;;;16.60;60.90;17.70;100224.00;;;;5009037;28;20248;-43
2022/12/21 04:15:12;;;;;;;3.50;3.20;;;16.60;60.90;17.70;100214.00;;;;5010926;28;20273;-43
2022/12/21 04:17:38;;;;;;;3.23;2.90;;;16.60;61.10;17.70;100207.00;;;;5010669;28;20176;-41
2022/12/21 04:20:06;;;;;;;4.03;3.40;;;16.60;61.00;17.70;100204.00;;;;5010466;28;20198;-42
2022/12/21 04:28:09;;;;;;;3.40;3.00;;;16.50;60.90;17.60;100195.00;;;;5014857;28;20700;-41
2022/12/21 04:30:43;;;;;;;4.60;2.90;;;16.60;61.10;17.60;100196.00;;;;5019001;28;20202;-40
2022/12/21 04:33:12;;;;;;;4.67;3.20;;;16.50;61.40;17.60;100189.00;;;;5015391;28;20274;-41
2022/12/21 04:37:30;;;;;;;3.80;2.97;;;16.50;61.30;17.60;100197.00;;;;5010994;28;20186;-41
2022/12/21 04:38:25;;;;;;;3.17;2.90;;;16.60;61.10;17.60;100192.00;;;;5010809;28;20271;-42
2022/12/21 04:40:53;;;;;;;4.37;2.93;;;16.60;60.90;17.60;100201.00;;;;5009953;28;20224;-41
2022/12/21 04:43:19;;;;;;;4.27;3.43;;;16.60;61.10;17.60;100197.00;;;;4993112;28;20682;-41
2022/12/21 04:45:44;;;;;;;7.40;3.40;;;16.60;61.10;17.60;100203.00;;;;5010642;28;20291;-41
2022/12/21 04:48:10;;;;;;;4.60;3.50;;;16.60;61.00;17.60;100200.00;;;;5009994;28;20164;-42
2022/12/21 04:50:38;;;;;;;3.67;3.37;;;16.50;61.10;17.60;100194.00;;;;5010576;28;20192;-42
2022/12/21 04:53:04;;;;;;;3.57;3.27;;;16.50;61.20;17.60;100194.00;;;;5010005;28;20633;-42
2022/12/21 04:55:30;;;;;;;3.43;3.13;;;16.50;61.20;17.60;100194.00;;;;5010918;28;20177;-42
2022/12/21 04:57:56;;;;;;;4.20;3.80;;;16.50;61.10;17.30;100196.00;;;;5010765;28;20177;-41
2022/12/21 05:00:21;;;;;;;3.70;3.40;;;16.50;61.40;17.50;100201.00;;;;5010598;28;20724;-41
2022/12/21 05:02:47;;;;;;;4.83;3.40;;;16.60;61.50;17.50;100204.00;;;;5010353;28;20546;-41
2022/12/21 05:05:13;;;;;;;4.43;3.67;;;16.50;61.30;17.50;100203.00;;;;5010569;28;20235;-41
2022/12/21 05:07:39;;;;;;;4.00;3.60;;;16.50;61.40;17.50;100188.00;;;;5010704;28;20248;-43
2022/12/21 05:10:05;;;;;;;4.30;3.60;;;16.50;61.50;17.50;100199.00;;;;5010899;28;20189;-41
2022/12/21 05:12:31;;;;;;;5.33;3.63;;;16.50;61.50;17.50;100210.00;;;;5009938;28;20181;-41
2022/12/21 05:14:57;;;;;;;4.50;3.30;;;16.50;61.70;17.50;100198.00;;;;5010694;28;20638;-42
2022/12/21 05:17:22;;;;;;;4.07;3.67;;;16.50;61.40;17.50;100194.00;;;;5010749;28;20171;-41
2022/12/21 05:19:48;;;;;;;7.23;3.50;;;16.60;61.10;17.50;100197.00;;;;5010895;28;20190;-41
2022/12/21 05:22:20;;;;;;;5.13;3.57;;;16.60;61.20;17.50;100184.00;;;;5018635;28;20310;-41
2022/12/21 05:24:46;;;;;;;5.13;3.47;;;16.60;60.90;17.60;100194.00;;;;5030551;28;20192;-41
2022/12/21 05:27:12;;;;;;;5.07;3.40;;;16.60;60.80;17.60;100190.00;;;;5012553;28;20692;-42
2022/12/21 05:29:38;;;;;;;4.63;3.03;;;16.50;60.70;17.60;100200.00;;;;5000059;28;20182;-42
2022/12/21 05:32:04;;;;;;;5.23;3.60;;;16.50;60.60;17.60;100192.00;;;;4998291;28;20275;-42
2022/12/21 05:34:30;;;;;;;4.03;3.47;;;16.50;60.80;17.60;100204.00;;;;4991125;28;20663;-42
2022/12/21 05:36:56;;;;;;;3.77;3.33;;;16.50;60.70;17.60;100195.00;;;;4989945;28;20198;-42
2022/12/21 05:39:21;;;;;;;3.77;3.00;;;16.50;60.70;17.60;100197.00;;;;4974002;28;20272;-42
2022/12/21 05:41:47;;;;;;;4.07;3.17;;;16.50;60.60;17.60;100192.00;;;;4972085;28;20193;-41
2022/12/21 05:44:13;;;;;;;7.20;3.00;;;16.50;60.70;17.60;100191.00;;;;4973399;28;20175;-41
2022/12/21 05:46:39;;;;;;;4.90;2.87;;;16.50;60.90;17.60;100206.00;;;;4972891;28;20208;-42
2022/12/21 05:49:05;;;;;;;5.70;3.10;;;16.60;61.10;17.60;100195.00;;;;4990768;28;20175;-41
2022/12/21 05:51:30;;;;;;;4.40;3.00;;;16.60;61.00;17.60;100191.00;;;;4990107;28;20192;-41
2022/12/21 05:53:56;;;;;;;3.10;2.80;;;16.50;60.90;17.60;100203.00;;;;4990371;28;20174;-43
2022/12/21 05:56:22;;;;;;;3.63;2.93;;;16.60;61.00;17.60;100188.00;;;;4990289;28;20179;-42
2022/12/21 05:58:48;;;;;;;4.30;2.80;;;16.50;60.90;17.60;100183.00;;;;4990008;28;20180;-41
2022/12/21 06:01:14;;;;;;;3.73;2.90;;;16.60;61.00;17.60;100177.00;;;;4992077;28;20204;-40
2022/12/21 06:03:40;;;;;;;3.60;3.10;;;16.50;60.70;17.60;100183.00;;;;4993341;28;20680;-42
2022/12/21 06:06:11;;;;;;;3.30;3.00;;;16.50;60.70;17.60;100173.00;;;;4994345;28;20209;-41
2022/12/21 06:08:37;;;;;;;3.20;2.90;;;16.50;60.70;17.50;100173.00;;;;4996551;28;20714;-42
2022/12/21 06:11:12;;;;;;;6.07;2.93;;;16.50;60.70;17.50;100172.00;;;;4994723;28;20223;-42
2022/12/21 06:13:38;;;;;;;3.80;2.97;;;16.50;60.70;17.50;100172.00;;;;4993941;28;20889;-42
2022/12/21 06:16:09;;;;;;;3.50;3.20;;;16.50;60.70;17.50;100161.00;;;;4994640;28;20183;-42
2022/12/21 06:18:35;;;;;;;3.43;3.13;;;16.50;60.60;17.50;100179.00;;;;4995795;28;20197;-43
2022/12/21 06:21:01;;;;;;;4.83;3.20;;;16.50;60.60;17.50;100162.00;;;;4995420;28;20201;-44
2022/12/21 06:23:26;;;;;;;3.40;3.10;;;16.50;60.60;17.50;100178.00;;;;4996319;28;20168;-42
2022/12/21 06:25:59;;;;;;;3.97;3.00;;;16.50;60.70;17.50;100179.00;;;;4995830;28;20200;-42
2022/12/21 06:28:25;;;;;;;3.30;3.00;;;16.50;60.70;17.50;100174.00;;;;4993869;28;20579;-41
2022/12/21 06:30:52;;;;;;;3.57;3.10;;;16.50;60.70;17.50;100171.00;;;;4993540;28;20198;-44
2022/12/21 06:33:19;;;;;;;3.30;3.00;;;16.40;60.60;17.50;100167.00;;;;4992843;28;20197;-41
2022/12/21 06:35:45;;;;;;;3.50;2.90;;;16.40;60.60;17.50;100176.00;;;;4992899;28;20177;-42
2022/12/21 06:38:11;;;;;;;3.50;3.20;;;16.40;60.60;17.40;100161.00;;;;4993435;28;20173;-41
2022/12/21 06:40:36;;;;;;;3.47;3.10;;;16.40;60.70;17.50;100173.00;;;;4993758;28;20198;-42
2022/12/21 06:43:02;;;;;;;3.37;3.07;;;16.40;60.70;17.50;100168.00;;;;4992810;28;20659;-42
2022/12/21 06:45:28;;;;;;;3.17;2.93;;;16.40;60.70;17.50;100169.00;;;;4993268;28;20181;-41
2022/12/21 06:47:54;;;;;;;3.23;2.93;;;16.40;60.60;17.50;100173.00;;;;4993354;28;20177;-42
2022/12/21 06:50:23;;;;;;;3.20;3.00;;;16.40;60.70;17.50;100173.00;;;;4993701;28;20220;-42
2022/12/21 06:52:49;;;;;;;3.20;2.90;;;16.40;60.70;17.40;100167.00;;;;4992703;28;20177;-41
2022/12/21 06:55:15;;;;;;;3.47;3.17;;;16.40;60.70;17.40;100166.00;;;;4992064;28;20260;-41
2022/12/21 06:57:42;;;;;;;3.10;2.90;;;16.40;60.70;17.40;100174.00;;;;4995687;28;20178;-41
2022/12/21 07:00:09;;;;;;;3.30;3.00;;;16.40;60.70;17.40;100161.00;;;;5011412;28;20204;-41
2022/12/21 07:02:36;;;;;;;3.33;3.03;;;16.40;60.70;17.40;100166.00;;;;5037250;28;20175;-42
2022/12/21 07:05:02;;;;;;;3.10;2.90;;;16.40;60.70;17.40;100171.00;;;;5034058;28;20600;-43
2022/12/21 07:07:28;;;;;;;3.20;2.90;;;16.40;60.70;17.40;100178.00;;;;5032936;28;20206;-43
2022/12/21 07:09:53;;;;;;;3.50;3.20;;;16.40;60.70;17.40;100166.00;;;;5032674;28;20167;-42
2022/12/21 07:12:19;;;;;;;3.00;2.80;;;16.40;60.80;17.40;100175.00;;;;5029855;28;20641;-43
2022/12/21 07:14:45;;;;;;;3.37;3.07;;;16.40;60.70;17.40;100177.00;;;;5032245;28;20167;-42
2022/12/21 07:17:10;;;;;;;3.30;3.00;;;16.40;60.80;17.40;100183.00;;;;5032369;28;20174;-43
2022/12/21 07:19:36;;;;;;;2.80;2.60;;;16.40;60.70;17.40;100186.00;;;;5032096;28;20187;-42
2022/12/21 07:22:02;;;;;;;3.17;2.90;;;16.40;60.70;17.40;100183.00;;;;5031381;28;20662;-43
2022/12/21 07:24:28;;;;;;;2.93;2.63;;;16.30;60.70;17.40;100179.00;;;;5030835;28;20180;-42
2022/12/21 07:26:54;;;;;;;2.80;2.60;;;16.40;60.70;17.40;100193.00;;;;5031884;28;20255;-42
2022/12/21 07:29:19;;;;;;;3.43;2.70;;;16.30;60.70;17.40;100186.00;;;;5032728;28;20184;-42
2022/12/21 07:31:45;;;;;;;3.80;2.50;;;16.40;61.30;17.40;100200.00;;;;5030707;28;20245;-42
2022/12/21 07:34:11;;;;;;;5.57;2.63;;;16.40;60.90;17.50;100197.00;;;;5031103;28;20182;-41
2022/12/21 07:36:37;;;;;;;8.67;2.87;;;16.40;61.00;17.50;100184.00;;;;5032164;28;20182;-42
2022/12/21 07:39:03;;;;;;;7.20;2.60;;;16.40;61.10;17.50;100201.00;;;;5032270;28;20179;-41
2022/12/21 07:41:28;;;;;;;3.27;2.70;;;16.40;61.00;17.50;100206.00;;;;5032055;28;20199;-42
2022/12/21 07:43:54;;;;;;;5.20;2.90;;;16.40;61.10;17.50;100212.00;;;;5018173;28;20210;-41
2022/12/21 07:46:20;;;;;;;3.40;2.43;;;16.40;60.90;17.50;100201.00;;;;5007970;28;20199;-41
2022/12/21 07:48:46;;;;;;;4.70;2.17;;;16.40;60.80;17.50;100200.00;;;;5011308;28;20596;-41
2022/12/21 07:51:12;;;;;;;5.10;2.37;;;16.40;60.70;17.50;100216.00;;;;5006220;28;20226;-41
2022/12/21 07:53:37;;;;;;;2.87;2.00;;;16.40;60.70;17.50;100197.00;;;;5005217;28;20259;-41
2022/12/21 07:56:14;;;;;;;3.20;2.20;;;16.40;60.60;17.40;100200.00;;;;5009954;28;20666;-41
2022/12/21 07:58:40;;;;;;;2.30;2.03;;;16.40;60.60;17.40;100209.00;;;;5010773;28;20178;-41
2022/12/21 08:01:09;;;;;;;4.50;1.90;;;16.40;60.50;17.40;100214.00;;;;5009858;28;20287;-40
2022/12/21 08:03:35;;;;;;;2.27;2.03;;;16.40;60.50;17.40;100233.00;;;;5011290;28;20191;-41
2022/12/21 08:06:01;;;;;;;3.97;2.30;;;16.40;60.30;17.40;100224.00;;;;5009933;28;20228;-43
2022/12/21 08:08:27;;;;;;;2.37;2.00;;;16.40;60.20;17.40;100222.00;;;;5011029;28;20176;-42
2022/12/21 08:10:53;;;;;;;3.93;2.27;;;16.30;60.10;17.40;100230.00;;;;5011156;28;20192;-42
2022/12/21 08:13:19;;;;;;;2.20;1.90;;;16.30;60.10;17.40;100237.00;;;;5011178;28;20175;-42
2022/12/21 08:15:44;;;;;;;2.47;2.00;;;16.40;60.20;17.10;100245.00;;;;5012098;28;20646;-41
2022/12/21 08:18:10;;;;;;;2.33;2.00;;;16.30;60.10;17.40;100229.00;;;;5011706;28;20191;-40
2022/12/21 08:20:36;;;;;;;2.93;2.00;;;16.40;60.10;17.40;100234.00;;;;5012251;28;20211;-42
2022/12/21 08:23:01;;;;;;;1.80;1.70;;;16.30;60.10;17.40;100225.00;;;;5011789;28;20172;-42
2022/12/21 08:25:27;;;;;;;2.47;2.00;;;16.30;60.00;17.40;100237.00;;;;5012040;28;20603;-42
2022/12/21 08:27:54;;;;;;;2.43;1.87;;;16.30;60.00;17.40;100238.00;;;;5011813;28;20308;-41
2022/12/21 08:30:20;;;;;;;2.17;1.90;;;16.30;60.00;17.40;100238.00;;;;5012074;28;20629;-40
2022/12/21 08:32:45;;;;;;;2.47;2.00;;;16.30;60.00;17.40;100234.00;;;;5011551;28;20170;-42
2022/12/21 08:35:11;;;;;;;2.00;1.90;;;16.30;60.00;17.40;100238.00;;;;5011789;28;20189;-41
2022/12/21 08:37:37;;;;;;;2.00;1.80;;;16.30;60.00;17.40;100250.00;;;;5011085;28;20171;-42
2022/12/21 08:40:03;;;;;;;3.73;1.73;;;16.30;60.00;17.40;100249.00;;;;5010124;28;20207;-41
2022/12/21 08:42:29;;;;;;;1.80;1.70;;;16.30;60.00;17.40;100253.00;;;;5017237;28;20218;-41
2022/12/21 08:44:55;;;;;;;1.97;1.80;;;16.30;59.90;17.40;100243.00;;;;5019990;28;20172;-41
2022/12/21 08:47:20;;;;;;;2.20;1.93;;;16.30;59.80;17.40;100261.00;;;;5020471;28;20195;-41
2022/12/21 08:49:46;;;;;;;2.03;1.80;;;16.30;59.80;17.40;100245.00;;;;5013836;28;20629;-41
2022/12/21 08:52:12;;;;;;;1.90;1.80;;;16.30;59.80;17.40;100258.00;;;;5012114;28;20211;-41
2022/12/21 08:54:38;;;;;;;1.90;1.70;;;16.30;59.80;17.40;100250.00;;;;5012175;28;20167;-41
2022/12/21 08:57:03;;;;;;;1.70;1.60;;;16.30;59.80;17.40;100235.00;;;;5011189;28;20192;-41
2022/12/21 08:59:29;;;;;;;2.27;1.77;;;16.30;59.80;17.30;100251.00;;;;5014112;28;20234;-41
2022/12/21 09:01:55;;;;;;;1.93;1.80;;;16.30;59.70;17.30;100262.00;;;;5017706;28;20906;-42
2022/12/21 09:04:20;;;;;;;2.27;1.70;;;16.30;59.60;17.40;100258.00;;;;5013344;28;20225;-41
2022/12/21 09:06:46;;;;;;;2.03;1.73;;;16.30;59.70;17.40;100255.00;;;;5012116;28;20278;-40
2022/12/21 09:09:12;;;;;;;3.27;2.03;;;16.30;60.00;17.40;100257.00;;;;5008399;28;20796;-41
2022/12/21 09:11:37;;;;;;;2.87;1.60;;;16.30;60.00;17.30;100262.00;;;;5010280;28;20235;-42
2022/12/21 09:14:03;;;;;;;3.57;2.10;;;16.30;60.10;17.30;100258.00;;;;5010545;28;20661;-42
2022/12/21 09:16:29;;;;;;;3.20;1.73;;;16.30;60.00;17.40;100267.00;;;;5011010;28;20183;-42
2022/12/21 09:18:55;;;;;;;4.80;2.00;;;16.30;60.10;17.30;100272.00;;;;5010214;28;20192;-42
2022/12/21 09:21:22;;;;;;;2.93;1.63;;;16.30;60.00;17.30;100272.00;;;;5009098;28;20196;-41
2022/12/21 09:23:48;;;;;;;2.23;2.03;;;16.30;60.10;17.30;100278.00;;;;5010221;28;20173;-41
2022/12/21 09:26:14;;;;;;;5.03;2.00;;;16.30;60.10;17.30;100273.00;;;;5010425;28;20207;-41
2022/12/21 09:28:40;;;;;;;3.67;1.90;;;16.30;60.10;17.30;100258.00;;;;5006764;28;20181;-41
2022/12/21 09:31:15;;;;;;;5.73;2.07;;;16.30;60.10;17.30;100270.00;;;;5008201;28;20288;-41
2022/12/21 09:33:42;;;;;;;2.53;2.00;;;16.20;60.10;17.30;100279.00;;;;5009939;28;20163;-41
2022/12/21 09:36:08;;;;;;;2.83;1.80;;;16.30;60.10;17.30;100275.00;;;;5009641;28;20172;-41
2022/12/21 09:38:34;;;;;;;2.93;1.97;;;16.20;60.00;17.30;100289.00;;;;5009589;28;20319;-41
2022/12/21 09:41:29;;;;;;;2.00;1.70;;;16.20;60.00;17.30;100288.00;;;;5010111;28;20210;-42
2022/12/21 09:44:12;;;;;;;4.43;1.70;;;16.20;60.00;17.30;100287.00;;;;5008243;28;20203;-42
2022/12/21 09:46:40;;;;;;;4.33;2.00;;;16.20;60.00;17.30;100296.00;;;;5010447;28;20217;-42
2022/12/21 09:49:13;;;;;;;4.30;1.67;;;16.20;60.00;17.30;100294.00;;;;5008824;28;20279;-41
2022/12/21 09:51:50;;;;;;;3.97;1.90;;;16.20;60.30;17.20;100293.00;;;;5005744;28;20213;-41
2022/12/21 09:54:19;;;;;;;4.07;1.97;;;16.30;60.10;17.20;100270.00;;;;5004846;28;20179;-40
2022/12/21 09:56:48;;;;;;;6.60;2.20;;;16.30;60.20;17.30;100298.00;;;;5028374;28;20225;-40
2022/12/21 09:59:15;;;;;;;4.00;1.90;;;16.20;60.00;17.30;100309.00;;;;5004180;28;20191;-40
2022/12/21 10:01:59;;;;;;;2.63;1.70;;;16.20;60.10;17.30;100300.00;;;;4983395;28;20260;-42
2022/12/21 10:04:56;;;;;;;5.77;2.00;;;16.20;60.00;17.30;100230.00;;;;5003048;28;20212;-41
2022/12/21 10:08:02;;;;;;;3.37;1.83;;;16.20;60.00;17.30;100318.00;;;;5004305;28;20563;-42
2022/12/21 10:10:42;;;;;;;3.23;2.03;;;16.20;60.00;17.20;100316.00;;;;5005017;28;20227;-42
2022/12/21 10:13:37;;;;;;;4.70;2.00;;;16.20;60.20;17.20;100310.00;;;;4984574;28;20192;-42
2022/12/21 10:17:09;;;;;;;3.63;2.00;;;16.30;60.70;17.20;100310.00;;;;4980296;28;20697;-42
2022/12/21 10:20:02;;;;;;;4.60;2.30;;;16.20;61.10;17.30;100315.00;;;;4993330;28;20247;-41
2022/12/21 10:22:38;;;;;;;7.87;2.30;;;16.20;61.50;17.30;100322.00;;;;4981823;28;20180;-40
2022/12/21 10:25:23;;;;;;;4.37;2.30;;;16.20;61.50;17.30;100324.00;;;;4988832;28;20547;-41
2022/12/21 10:28:26;;;;;;;5.20;2.30;;;16.20;61.50;17.30;100333.00;;;;4989846;28;20192;-42
2022/12/21 10:31:02;;;;;;;2.40;1.90;;;16.20;61.60;17.30;100258.00;;;;4989085;28;20236;-40
2022/12/21 10:33:28;;;;;;;3.27;2.20;;;16.20;62.00;17.30;100326.00;;;;5001076;28;20192;-41
2022/12/21 10:35:55;;;;;;;6.70;2.30;;;16.20;61.90;17.30;100335.00;;;;4988617;28;20256;-41
2022/12/21 10:38:21;;;;;;;6.27;2.20;;;16.30;61.90;17.30;100335.00;;;;4971521;28;20237;-41
2022/12/21 10:40:51;;;;;;;5.80;2.20;;;16.20;62.00;17.30;100345.00;;;;4988530;28;20201;-43
2022/12/21 10:43:16;;;;;;;5.03;2.23;;;16.20;61.70;17.30;100339.00;;;;4983899;28;20180;-42
2022/12/21 10:45:42;;;;;;;4.13;2.07;;;16.20;61.70;17.30;100345.00;;;;5007457;28;20764;-42
2022/12/21 10:48:08;;;;;;;3.43;2.20;;;16.20;61.60;17.30;100276.00;;;;5004730;28;20317;-41
2022/12/21 10:50:37;;;;;;;3.63;2.10;;;16.20;61.60;17.30;100342.00;;;;4993575;28;20192;-42
2022/12/21 10:53:24;;;;;;;5.20;2.10;;;16.20;62.00;17.30;100341.00;;;;4992468;28;20194;-42
2022/12/21 10:55:54;;;;;;;5.93;2.13;;;16.20;61.50;17.30;100326.00;;;;4991713;28;20858;-43
2022/12/21 10:58:25;;;;;;;5.47;2.20;;;16.10;61.40;17.30;100333.00;;;;5008553;28;20647;-41
2022/12/21 11:00:59;;;;;;;5.50;2.37;;;16.20;61.90;17.30;100334.00;;;;5027463;28;20209;-42
2022/12/21 11:03:39;;;;;;;5.73;2.40;;;16.20;61.70;17.30;100320.00;;;;5033635;28;20168;-42
2022/12/21 11:06:19;;;;;;;5.47;2.50;;;16.20;61.70;17.30;100322.00;;;;5015778;28;20201;-42
2022/12/21 11:08:52;;;;;;;8.30;2.43;;;16.20;61.60;17.30;100332.00;;;;5012664;28;20177;-42